EGAE

City of Derry Airport

Derry, United Kingdom
METAR EGAE 241450Z 04011KT 9999 FEW035 18/13 Q1025
Observed Flight Rules
Jun-24 @ 14:50 UTC (12 minutes ago) Visual Flight Rules
Wind Visibility Clouds
40° at 11 knots 10,000+ meters
  • Few at 3,500' AGL
Temperatures Readings
Current 18°C / 64°F
Dewpoint 13°C / 55°F
Humidity 73%
Altimeter 30.27" Hg
Pressure 1025 hPa
Elevation 9
METAR EGAE 241450Z 04011KT 9999 FEW035 18/13 Q1025
Observed Flight Rules
Jun-24 @ 14:50 UTC
(12 minutes ago)
VFR
Wind Visibility
40° at 11 knots 10,000+ meters
Clouds
  • Few at 3,500' AGL
Temperature Dewpoint
18°C / 64°F 13°C / 55°F
Humidity Altimeter Pressure
73% 30.27" Hg 1025 hPa